createdAt,value
2023-03-29T00:02:29.116Z,100920.78
2023-03-29T00:04:55.502Z,100929.91
2023-03-29T00:07:21.873Z,100927.09
2023-03-29T00:09:48.189Z,100919.19
2023-03-29T00:15:08.629Z,100927.50
2023-03-29T00:17:37.877Z,100928.72
2023-03-29T00:20:04.236Z,100926.75
2023-03-29T00:22:33.350Z,100925.16
2023-03-29T00:24:59.685Z,100930.28
2023-03-29T00:30:12.839Z,100927.94
2023-03-29T00:32:41.997Z,100918.38
2023-03-29T00:35:08.358Z,100922.38
2023-03-29T00:37:34.683Z,100925.16
2023-03-29T00:40:00.978Z,100921.94
2023-03-29T00:45:24.238Z,100926.31
2023-03-29T00:47:53.384Z,100923.94
2023-03-29T00:50:19.775Z,100927.13
2023-03-29T00:52:48.896Z,100925.53
2023-03-29T00:55:15.262Z,100919.19
2023-03-29T01:00:35.301Z,100919.19
2023-03-29T01:03:01.701Z,100922.75
2023-03-29T01:05:28.068Z,100924.72
2023-03-29T01:07:57.164Z,100924.72
2023-03-29T01:10:23.496Z,100921.16
2023-03-29T01:15:46.505Z,100918.38
2023-03-29T01:18:12.908Z,100915.19
2023-03-29T01:20:42.007Z,100919.16
2023-03-29T01:23:08.327Z,100921.53
2023-03-29T01:25:34.668Z,100928.72
2023-03-29T01:30:44.726Z,100922.34
2023-03-29T01:33:11.055Z,100921.91
2023-03-29T01:35:37.538Z,100924.28
2023-03-29T01:38:03.931Z,100925.91
2023-03-29T01:40:30.245Z,100926.69
2023-03-29T01:45:50.147Z,100931.09
2023-03-29T01:48:16.504Z,100926.31
2023-03-29T01:50:42.833Z,100928.69
2023-03-29T01:53:09.198Z,100925.91
2023-03-29T01:55:35.495Z,100922.75
2023-03-29T02:00:55.782Z,100923.53
2023-03-29T02:03:25.065Z,100928.69
2023-03-29T02:05:51.489Z,100923.13
2023-03-29T02:08:17.866Z,100919.13
2023-03-29T02:10:46.981Z,100924.69
2023-03-29T02:16:07.010Z,100935.81
2023-03-29T02:18:33.355Z,100937.03
2023-03-29T02:21:02.645Z,100939.03
2023-03-29T02:23:29.152Z,100935.44
2023-03-29T02:25:55.496Z,100945.34
2023-03-29T02:31:05.716Z,100939.41
2023-03-29T02:33:32.138Z,100944.97
2023-03-29T02:35:58.528Z,100944.97
2023-03-29T02:38:24.883Z,100939.41
2023-03-29T02:40:54.022Z,100946.13
2023-03-29T02:46:04.087Z,100937.78
2023-03-29T02:48:30.439Z,100942.19
2023-03-29T02:50:56.766Z,100942.56
2023-03-29T02:53:23.111Z,100937.78
2023-03-29T02:55:52.254Z,100948.94
2023-03-29T02:58:18.601Z,100935.81
2023-03-29T03:00:44.969Z,100946.16
2023-03-29T03:03:11.412Z,100944.53
2023-03-29T03:05:37.840Z,100948.13
2023-03-29T03:08:07.017Z,100944.13
2023-03-29T03:10:33.358Z,100941.75
2023-03-29T03:13:02.449Z,100952.09
2023-03-29T03:15:28.806Z,100950.91
2023-03-29T03:17:55.226Z,100952.47
2023-03-29T03:20:21.707Z,100955.22
2023-03-29T03:22:48.030Z,100951.63
2023-03-29T03:25:14.385Z,100962.38
2023-03-29T03:27:40.730Z,100954.47
2023-03-29T03:30:07.067Z,100959.59
2023-03-29T03:32:33.401Z,100957.66
2023-03-29T03:34:59.792Z,100949.28
2023-03-29T03:37:26.138Z,100952.03
2023-03-29T03:39:52.483Z,100946.88
2023-03-29T03:42:18.922Z,100950.47
2023-03-29T03:44:45.213Z,100947.75
2023-03-29T03:47:11.555Z,100947.25
2023-03-29T03:49:37.891Z,100950.84
2023-03-29T03:52:07.027Z,100954.81
2023-03-29T03:54:33.349Z,100952.09
2023-03-29T03:56:59.754Z,100952.81
2023-03-29T03:59:26.146Z,100957.19
2023-03-29T04:04:36.394Z,100962.34
2023-03-29T04:07:02.780Z,100962.75
2023-03-29T04:09:29.226Z,100977.03
2023-03-29T04:11:55.555Z,100978.25
2023-03-29T04:14:21.891Z,100969.91
2023-03-29T04:19:42.434Z,100979.03
2023-03-29T04:22:08.796Z,100976.25
2023-03-29T04:24:37.936Z,100976.66
2023-03-29T04:27:07.072Z,100981.81
2023-03-29T04:29:33.408Z,100981.47
2023-03-29T04:34:56.245Z,100983.00
2023-03-29T04:37:22.578Z,100983.00
2023-03-29T04:39:49.088Z,100982.59
2023-03-29T04:42:15.491Z,100985.78
2023-03-29T04:44:41.862Z,100989.00
2023-03-29T04:50:02.224Z,100985.03
2023-03-29T04:52:28.627Z,100988.22
2023-03-29T04:54:54.941Z,100990.16
2023-03-29T04:57:21.310Z,100979.88
2023-03-29T04:59:47.715Z,100977.44
2023-03-29T05:04:57.864Z,100984.69
2023-03-29T05:07:24.184Z,100981.16
2023-03-29T05:09:50.573Z,100984.72
2023-03-29T05:12:16.874Z,100989.84
2023-03-29T05:14:43.216Z,100989.84
2023-03-29T05:20:03.358Z,100990.63
2023-03-29T05:22:29.726Z,100986.72
2023-03-29T05:24:56.046Z,100985.97
2023-03-29T05:27:22.502Z,100990.28
2023-03-29T05:29:48.994Z,100993.47
2023-03-29T05:35:10.289Z,100986.34
2023-03-29T05:37:37.592Z,100986.38
2023-03-29T05:40:05.577Z,100985.16
2023-03-29T05:42:32.822Z,100987.53
2023-03-29T05:44:59.208Z,100989.50
2023-03-29T05:50:10.081Z,100997.91
2023-03-29T05:52:37.453Z,100991.94
2023-03-29T05:55:04.964Z,100995.53
2023-03-29T05:57:31.491Z,100999.53
2023-03-29T05:59:59.766Z,100990.34
2023-03-29T06:05:11.486Z,100995.53
2023-03-29T06:07:38.774Z,100997.91
2023-03-29T06:10:06.243Z,100989.97
2023-03-29T06:12:33.975Z,100991.56
2023-03-29T06:15:00.725Z,100997.53
2023-03-29T06:20:22.172Z,101002.31
2023-03-29T06:22:48.974Z,101003.09
2023-03-29T06:25:16.267Z,101013.47
2023-03-29T06:27:43.754Z,101001.97
2023-03-29T06:30:11.017Z,101015.44
2023-03-29T06:35:24.803Z,101020.28
2023-03-29T06:37:51.148Z,101015.38
2023-03-29T06:40:18.660Z,101023.50
2023-03-29T06:42:45.142Z,101019.16
2023-03-29T06:45:11.630Z,101026.16
2023-03-29T06:50:32.264Z,101026.41
2023-03-29T06:52:58.789Z,101026.84
2023-03-29T06:55:25.294Z,101034.16
2023-03-29T06:57:52.761Z,101029.84
2023-03-29T07:00:20.188Z,101032.69
2023-03-29T07:05:41.442Z,101032.91
2023-03-29T07:08:07.934Z,101035.91
2023-03-29T07:10:34.396Z,101037.53
2023-03-29T07:13:01.843Z,101037.13
2023-03-29T07:15:28.297Z,101039.03
2023-03-29T07:20:40.799Z,101033.72
2023-03-29T07:23:07.249Z,101029.69
2023-03-29T07:25:33.719Z,101031.38
2023-03-29T07:28:00.172Z,101025.53
2023-03-29T07:30:27.314Z,101031.88
2023-03-29T07:32:55.014Z,101027.81
2023-03-29T07:35:22.414Z,101021.59
2023-03-29T07:37:50.688Z,101025.03
2023-03-29T07:40:17.230Z,101023.38
2023-03-29T07:42:44.622Z,101021.81
2023-03-29T07:45:11.918Z,101027.22
2023-03-29T07:47:38.463Z,101029.78
2023-03-29T07:50:05.971Z,101025.16
2023-03-29T07:52:33.300Z,101024.91
2023-03-29T07:55:02.476Z,101025.34
2023-03-29T07:57:28.987Z,101021.69
2023-03-29T07:59:55.500Z,101019.69
2023-03-29T08:02:22.761Z,101022.91
2023-03-29T08:04:49.246Z,101019.63
2023-03-29T08:07:18.449Z,101019.16
2023-03-29T08:09:45.269Z,101010.94
2023-03-29T08:12:11.632Z,101010.47
2023-03-29T08:14:37.965Z,101011.63
2023-03-29T08:17:04.357Z,101008.00
2023-03-29T08:19:30.809Z,101002.59
2023-03-29T08:21:58.227Z,101003.75
2023-03-29T08:24:24.622Z,101008.03
2023-03-29T08:26:50.968Z,101000.59
2023-03-29T08:29:18.181Z,100992.22
2023-03-29T08:31:44.603Z,101002.94
2023-03-29T08:34:10.956Z,100996.56
2023-03-29T08:36:37.308Z,100992.25
2023-03-29T08:39:03.697Z,101000.66
2023-03-29T08:41:30.058Z,100988.78
2023-03-29T08:43:56.474Z,100988.72
2023-03-29T08:46:22.822Z,100988.41
2023-03-29T08:48:49.220Z,100989.78
2023-03-29T08:54:09.498Z,100992.75
2023-03-29T08:56:35.861Z,100983.66
2023-03-29T08:59:02.198Z,100988.53
2023-03-29T09:01:28.608Z,100992.88
2023-03-29T09:03:55.069Z,100994.94
2023-03-29T09:09:15.482Z,100977.88
2023-03-29T09:11:41.804Z,100985.13
2023-03-29T09:14:08.150Z,100992.31
2023-03-29T09:16:34.608Z,100991.06
2023-03-29T09:19:01.059Z,100988.84
2023-03-29T09:24:14.203Z,100984.06
2023-03-29T09:26:40.508Z,100974.91
2023-03-29T09:29:09.447Z,100978.22
2023-03-29T09:31:36.020Z,100972.72
2023-03-29T09:34:02.403Z,100967.91
2023-03-29T09:39:12.855Z,100965.97
2023-03-29T09:41:39.179Z,100956.84
2023-03-29T09:44:05.539Z,100958.31
2023-03-29T09:46:31.869Z,100950.53
2023-03-29T09:48:58.182Z,100950.72
2023-03-29T09:54:18.501Z,100946.34
2023-03-29T09:56:44.872Z,100948.69
2023-03-29T09:59:11.272Z,100955.91
2023-03-29T10:01:37.644Z,100950.38
2023-03-29T10:04:04.041Z,100950.38
2023-03-29T10:09:24.208Z,100945.59
2023-03-29T10:11:50.577Z,100946.50
2023-03-29T10:14:16.960Z,100943.63
2023-03-29T10:16:43.363Z,100933.41
2023-03-29T10:19:09.755Z,100933.81
2023-03-29T10:24:58.478Z,100948.47
2023-03-29T10:27:24.847Z,100946.69
2023-03-29T10:29:51.197Z,100941.13
2023-03-29T10:32:18.412Z,100944.00
2023-03-29T10:34:44.781Z,100942.78
2023-03-29T10:40:04.882Z,100943.03
2023-03-29T10:42:31.278Z,100948.66
2023-03-29T10:44:57.634Z,100932.03
2023-03-29T10:47:24.014Z,100927.38
2023-03-29T10:49:51.001Z,100934.94
2023-03-29T10:55:01.531Z,100926.19
2023-03-29T10:57:27.969Z,100926.56
2023-03-29T10:59:54.356Z,100926.97
2023-03-29T11:02:20.733Z,100927.41
2023-03-29T11:04:47.109Z,100928.22
2023-03-29T11:10:07.540Z,100919.38
2023-03-29T11:12:33.914Z,100914.59
2023-03-29T11:15:00.254Z,100904.28
2023-03-29T11:17:26.638Z,100909.00
2023-03-29T11:19:53.060Z,100904.69
2023-03-29T11:25:03.282Z,100900.34
2023-03-29T11:27:29.659Z,100900.34
2023-03-29T11:29:56.043Z,100898.72
2023-03-29T11:32:22.387Z,100896.84
2023-03-29T11:34:48.742Z,100889.78
2023-03-29T11:40:09.176Z,100887.81
2023-03-29T11:42:35.500Z,100884.66
2023-03-29T11:45:01.872Z,100880.25
2023-03-29T11:47:28.265Z,100876.31
2023-03-29T11:49:54.604Z,100880.72
2023-03-29T11:55:14.627Z,100877.50
2023-03-29T11:57:41.073Z,100867.63
2023-03-29T12:00:07.469Z,100867.66
2023-03-29T12:02:33.932Z,100870.03
2023-03-29T12:05:00.402Z,100856.13
2023-03-29T12:07:26.762Z,100860.44
2023-03-29T12:09:53.129Z,100868.38
2023-03-29T12:12:19.468Z,100866.41
2023-03-29T12:14:45.791Z,100858.47
2023-03-29T12:17:12.162Z,100857.31
2023-03-29T12:19:41.744Z,100847.03
2023-03-29T12:22:09.781Z,100858.13
2023-03-29T12:24:36.325Z,100854.13
2023-03-29T12:27:02.713Z,100852.50
2023-03-29T12:29:29.033Z,100845.34
2023-03-29T12:31:55.507Z,100838.19
2023-03-29T12:34:21.955Z,100841.81
2023-03-29T12:36:48.314Z,100839.38
2023-03-29T12:39:14.744Z,100848.09
2023-03-29T12:41:41.081Z,100852.84
2023-03-29T12:44:09.536Z,100842.53
2023-03-29T12:46:37.167Z,100836.97
2023-03-29T12:49:03.622Z,100844.91
2023-03-29T12:51:29.947Z,100837.78
2023-03-29T12:53:56.296Z,100846.06
2023-03-29T12:56:22.677Z,100841.25
2023-03-29T12:58:49.012Z,100834.50
2023-03-29T13:01:16.361Z,100829.34
2023-03-29T13:03:42.761Z,100828.91
2023-03-29T13:06:09.151Z,100826.94
2023-03-29T13:08:35.570Z,100826.09
2023-03-29T13:11:01.973Z,100824.50
2023-03-29T13:13:28.303Z,100827.69
2023-03-29T13:15:54.731Z,100827.28
2023-03-29T13:18:21.104Z,100832.81
2023-03-29T13:20:47.448Z,100828.06
2023-03-29T13:23:16.970Z,100824.13
2023-03-29T13:28:27.665Z,100814.56
2023-03-29T13:30:54.082Z,100810.59
2023-03-29T13:33:20.519Z,100806.25
2023-03-29T13:35:46.914Z,100802.66
2023-03-29T13:38:13.400Z,100813.00
2023-03-29T13:43:23.545Z,100800.69
2023-03-29T13:45:49.879Z,100802.59
2023-03-29T13:48:16.295Z,100792.34
2023-03-29T13:50:42.667Z,100801.47
2023-03-29T13:53:09.007Z,100796.41
2023-03-29T13:58:29.200Z,100794.13
2023-03-29T14:00:55.599Z,100790.59
2023-03-29T14:03:21.998Z,100787.78
2023-03-29T14:05:48.346Z,100787.78
2023-03-29T14:08:14.722Z,100788.22
2023-03-29T14:13:37.835Z,100786.34
2023-03-29T14:16:05.462Z,100783.97
2023-03-29T14:18:32.142Z,100783.09
2023-03-29T14:20:58.710Z,100785.50
2023-03-29T14:23:25.316Z,100781.19
2023-03-29T14:28:36.451Z,100774.34
2023-03-29T14:31:02.849Z,100771.31
2023-03-29T14:33:29.371Z,100771.66
2023-03-29T14:35:55.834Z,100776.75
2023-03-29T14:38:22.232Z,100780.78
2023-03-29T14:43:42.300Z,100779.16
2023-03-29T14:46:08.686Z,100771.97
2023-03-29T14:48:35.081Z,100767.25
2023-03-29T14:51:01.490Z,100768.28
2023-03-29T14:53:27.831Z,100767.44
2023-03-29T14:58:37.987Z,100751.97
2023-03-29T15:01:04.494Z,100755.81
2023-03-29T15:03:30.950Z,100759.84
2023-03-29T15:05:57.366Z,100753.88
2023-03-29T15:08:23.686Z,100751.97
2023-03-29T15:13:34.114Z,100755.06
2023-03-29T15:16:00.650Z,100750.69
2023-03-29T15:18:27.294Z,100753.19
2023-03-29T15:20:53.648Z,100744.84
2023-03-29T15:23:20.047Z,100748.34
2023-03-29T15:25:46.410Z,100748.03
2023-03-29T15:28:12.753Z,100752.34
2023-03-29T15:30:39.988Z,100745.19
2023-03-29T15:33:06.412Z,100745.59
2023-03-29T15:35:32.863Z,100746.28
2023-03-29T15:37:59.190Z,100737.72
2023-03-29T15:40:25.613Z,100732.09
2023-03-29T15:42:52.010Z,100740.91
2023-03-29T15:45:18.377Z,100740.38
2023-03-29T15:47:44.829Z,100740.41
2023-03-29T15:50:11.258Z,100734.59
2023-03-29T15:52:37.617Z,100736.50
2023-03-29T15:55:03.980Z,100730.13
2023-03-29T15:57:30.451Z,100721.72
2023-03-29T15:59:56.864Z,100722.56
2023-03-29T16:02:23.215Z,100724.50
2023-03-29T16:04:49.724Z,100725.31
2023-03-29T16:07:16.206Z,100718.97
2023-03-29T16:09:42.642Z,100723.28
2023-03-29T16:12:09.135Z,100718.56
2023-03-29T16:14:36.482Z,100716.59
2023-03-29T16:17:05.044Z,100710.63
2023-03-29T16:19:32.346Z,100708.28
2023-03-29T16:21:58.777Z,100711.47
2023-03-29T16:24:25.277Z,100716.19
2023-03-29T16:26:53.367Z,100711.44
2023-03-29T16:32:15.888Z,100704.69
2023-03-29T16:34:42.423Z,100705.84
2023-03-29T16:37:08.904Z,100705.09
2023-03-29T16:39:35.337Z,100703.50
2023-03-29T16:42:01.834Z,100692.38
2023-03-29T16:47:13.342Z,100689.63
2023-03-29T16:49:40.289Z,100690.00
2023-03-29T16:52:07.048Z,100690.78
2023-03-29T16:54:33.483Z,100689.59
2023-03-29T16:57:00.985Z,100682.03
2023-03-29T17:02:23.199Z,100680.47
2023-03-29T17:04:49.711Z,100681.22
2023-03-29T17:07:16.212Z,100687.19
2023-03-29T17:09:42.653Z,100679.25
2023-03-29T17:12:11.806Z,100686.81
2023-03-29T17:17:22.117Z,100678.91
2023-03-29T17:19:48.479Z,100681.47
2023-03-29T17:22:15.721Z,100676.75
2023-03-29T17:24:42.216Z,100677.94
2023-03-29T17:27:08.711Z,100676.00
2023-03-29T17:32:30.412Z,100682.78
2023-03-29T17:34:56.927Z,100684.75
2023-03-29T17:37:23.386Z,100680.41
2023-03-29T17:39:50.818Z,100677.63
2023-03-29T17:42:17.297Z,100682.00
2023-03-29T17:47:28.067Z,100686.00
2023-03-29T17:49:54.538Z,100684.00
2023-03-29T17:52:20.997Z,100689.94
2023-03-29T17:54:48.373Z,100681.63
2023-03-29T17:57:14.931Z,100688.38
2023-03-29T18:02:26.537Z,100698.28
2023-03-29T18:04:54.025Z,100695.13
2023-03-29T18:07:20.566Z,100703.44
2023-03-29T18:09:47.008Z,100699.09
2023-03-29T18:12:14.400Z,100691.56
2023-03-29T18:17:35.060Z,100689.97
2023-03-29T18:20:02.546Z,100685.63
2023-03-29T18:22:29.006Z,100686.78
2023-03-29T18:24:56.423Z,100686.78
2023-03-29T18:27:23.816Z,100676.50
2023-03-29T18:32:36.947Z,100676.88
2023-03-29T18:35:04.247Z,100688.78
2023-03-29T18:37:30.918Z,100683.63
2023-03-29T18:40:00.152Z,100682.84
2023-03-29T18:42:26.691Z,100681.25
2023-03-29T18:47:39.969Z,100674.88
2023-03-29T18:50:08.287Z,100670.50
2023-03-29T18:52:34.784Z,100680.84
2023-03-29T18:55:01.274Z,100678.91
2023-03-29T18:57:28.578Z,100686.81
2023-03-29T19:02:53.800Z,100688.00
2023-03-29T19:05:22.234Z,100690.03
2023-03-29T19:07:50.506Z,100684.03
2023-03-29T19:10:16.899Z,100675.72
2023-03-29T19:12:43.316Z,100676.50
2023-03-29T19:17:56.524Z,100682.06
2023-03-29T19:20:23.047Z,100675.38
2023-03-29T19:22:49.525Z,100682.50
2023-03-29T19:25:16.982Z,100687.25
2023-03-29T19:27:44.322Z,100683.72
2023-03-29T19:33:06.709Z,100680.94
2023-03-29T19:35:33.236Z,100682.50
2023-03-29T19:37:59.697Z,100686.88
2023-03-29T19:40:26.165Z,100676.16
2023-03-29T19:42:52.622Z,100681.72
2023-03-29T19:48:05.164Z,100665.44
2023-03-29T19:50:32.478Z,100669.00
2023-03-29T19:52:59.856Z,100664.25
2023-03-29T19:55:26.336Z,100659.47
2023-03-29T19:57:52.804Z,100659.09
2023-03-29T20:00:19.283Z,100661.47
2023-03-29T20:02:46.602Z,100651.16
2023-03-29T20:05:13.183Z,100648.38
2023-03-29T20:07:39.679Z,100633.69
2023-03-29T20:10:07.042Z,100634.47
2023-03-29T20:12:33.520Z,100633.69
2023-03-29T20:14:59.985Z,100629.69
2023-03-29T20:17:27.452Z,100626.91
2023-03-29T20:19:54.857Z,100618.97
2023-03-29T20:22:22.246Z,100619.41
2023-03-29T20:24:49.647Z,100618.19
2023-03-29T20:27:17.015Z,100618.56
2023-03-29T20:29:44.354Z,100612.22
2023-03-29T20:32:11.794Z,100615.00
2023-03-29T20:34:38.419Z,100613.81
2023-03-29T20:37:05.250Z,100601.50
2023-03-29T20:39:32.774Z,100613.75
2023-03-29T20:41:59.252Z,100600.28
2023-03-29T20:44:25.723Z,100611.78
2023-03-29T20:46:52.221Z,100601.88
2023-03-29T20:49:19.613Z,100601.47
2023-03-29T20:51:47.015Z,100607.84
2023-03-29T20:54:13.447Z,100603.06
2023-03-29T20:56:41.014Z,100601.47
2023-03-29T20:59:07.481Z,100605.84
2023-03-29T21:01:33.957Z,100603.81
2023-03-29T21:06:56.266Z,100585.03
2023-03-29T21:09:23.615Z,100587.72
2023-03-29T21:11:50.833Z,100592.25
2023-03-29T21:14:18.181Z,100589.78
2023-03-29T21:16:45.418Z,100588.75
2023-03-29T21:22:07.432Z,100585.22
2023-03-29T21:24:37.411Z,100586.66
2023-03-29T21:27:05.708Z,100586.00
2023-03-29T21:29:32.248Z,100592.34
2023-03-29T21:31:58.890Z,100588.81
2023-03-29T21:37:09.321Z,100581.66
2023-03-29T21:39:35.793Z,100576.88
2023-03-29T21:42:02.259Z,100576.09
2023-03-29T21:44:30.649Z,100576.50
2023-03-29T21:46:59.425Z,100576.88
2023-03-29T21:52:20.763Z,100565.78
2023-03-29T21:54:47.310Z,100569.75
2023-03-29T21:57:14.681Z,100567.38
2023-03-29T21:59:41.098Z,100571.69
2023-03-29T22:02:07.602Z,100567.38
2023-03-29T22:07:19.201Z,100554.66
2023-03-29T22:09:45.695Z,100556.25
2023-03-29T22:12:12.138Z,100555.03
2023-03-29T22:14:39.474Z,100542.31
2023-03-29T22:17:06.804Z,100542.75
2023-03-29T22:22:29.034Z,100535.19
2023-03-29T22:24:58.965Z,100527.63
2023-03-29T22:27:25.367Z,100522.88
2023-03-29T22:29:51.843Z,100526.47
2023-03-29T22:32:18.340Z,100525.66
2023-03-29T22:37:42.791Z,100517.31
2023-03-29T22:40:09.353Z,100517.75
2023-03-29T22:42:36.607Z,100519.31
2023-03-29T22:45:03.099Z,100519.69
2023-03-29T22:47:30.432Z,100513.75
2023-03-29T22:52:42.907Z,100517.75
2023-03-29T22:55:10.190Z,100511.75
2023-03-29T22:57:36.770Z,100507.41
2023-03-29T23:00:03.266Z,100501.84
2023-03-29T23:02:29.771Z,100511.75
2023-03-29T23:07:50.549Z,100506.59
2023-03-29T23:10:18.919Z,100498.28
2023-03-29T23:12:46.193Z,100501.84
2023-03-29T23:15:12.594Z,100499.09
2023-03-29T23:17:39.887Z,100503.03
2023-03-29T23:22:53.677Z,100492.31
2023-03-29T23:25:20.168Z,100487.56
2023-03-29T23:27:47.450Z,100483.59
2023-03-29T23:30:14.708Z,100480.41
2023-03-29T23:32:42.003Z,100484.81
2023-03-29T23:37:54.531Z,100490.75
2023-03-29T23:40:22.807Z,100479.63
2023-03-29T23:42:49.257Z,100485.97
2023-03-29T23:45:15.704Z,100482.78
2023-03-29T23:47:42.969Z,100485.59
2023-03-29T23:53:04.480Z,100482.81
2023-03-29T23:55:33.705Z,100476.84
2023-03-29T23:58:02.050Z,100472.47
